Terminal Aerodrome Forecast
Issued by NWS

Current Version | Previous Version | Text Only | Print | Product List | Glossary Off
Versions: 1 2 3 4 5 6 7 8 9 10 11 12 13

000
FTUS44 KSJT 251120
TAFJCT
TAF
KJCT 251120Z 2512/2612 VRB03KT P6SM SCT250
     FM251500 15006KT P6SM FEW050
     FM251900 10006KT P6SM VCTS SCT060CB
     FM260200 VRB05KT P6SM SCT150=

USA.gov is the U.S. government's official web portal to all federal, state and local government web resources and services.